BFM weather

Mobile Downtown Airport
Mobile, Alabama, United States

Public forecast

Using degrees Fahrenheit for public forecast. Weather courtesy of forecast.io.

METAR (pilot weather report)

Retrieved 2019/09/22 18:53 UTC (37 minutes ago):

KBFM 221853Z 00000KT 10SM SCT055 32/16 A3010 RMK AO2 SLP193 T03170161

TAF (pilot weather forecast)

Retrieved 2019/09/22 18:34 UTC (56 minutes ago):

TAF KBFM 221732Z 2218/2318 12010KT P6SM FEW050 FM230100 VRB04KT P6SM SKC FM231500 10006KT P6SM FEW030